createdAt,value
2017-12-21T00:00:08.222Z,3.80
2017-12-21T00:02:35.288Z,4.53
2017-12-21T00:05:02.532Z,4.80
2017-12-21T00:07:29.805Z,3.57
2017-12-21T00:09:57.065Z,6.00
2017-12-21T00:12:24.351Z,3.70
2017-12-21T00:14:51.593Z,3.10
2017-12-21T00:17:18.860Z,5.00
2017-12-21T00:19:46.108Z,3.93
2017-12-21T00:22:13.379Z,3.10
2017-12-21T00:24:40.630Z,2.77
2017-12-21T00:27:07.891Z,2.60
2017-12-21T00:29:35.163Z,4.00
2017-12-21T00:32:02.423Z,3.37
2017-12-21T00:34:29.683Z,3.53
2017-12-21T00:36:56.932Z,4.70
2017-12-21T00:39:24.192Z,2.70
2017-12-21T00:41:51.442Z,2.60
2017-12-21T00:44:18.713Z,2.57
2017-12-21T00:46:45.956Z,3.30
2017-12-21T00:49:13.221Z,4.30
2017-12-21T00:51:40.477Z,3.40
2017-12-21T00:54:07.744Z,4.63
2017-12-21T00:56:34.991Z,3.03
2017-12-21T00:59:02.257Z,3.33
2017-12-21T01:01:29.517Z,5.90
2017-12-21T01:03:56.800Z,4.70
2017-12-21T01:06:24.044Z,5.20
2017-12-21T01:08:51.301Z,3.60
2017-12-21T01:11:18.560Z,3.60
2017-12-21T01:13:45.809Z,3.57
2017-12-21T01:16:13.077Z,3.13
2017-12-21T01:18:40.329Z,3.50
2017-12-21T01:21:07.590Z,5.40
2017-12-21T01:23:34.840Z,4.20
2017-12-21T01:26:02.109Z,4.43
2017-12-21T01:28:29.357Z,6.50
2017-12-21T01:30:56.627Z,3.40
2017-12-21T01:33:23.936Z,3.30
2017-12-21T01:35:51.211Z,5.00
2017-12-21T01:38:18.461Z,5.60
2017-12-21T01:40:45.721Z,4.50
2017-12-21T01:43:12.969Z,3.17
2017-12-21T01:45:40.232Z,3.90
2017-12-21T01:48:07.481Z,3.30
2017-12-21T01:50:34.753Z,3.47
2017-12-21T01:53:02.005Z,3.67
2017-12-21T01:55:29.282Z,3.60
2017-12-21T01:57:56.541Z,3.70
2017-12-21T02:00:23.805Z,4.17
2017-12-21T02:02:51.079Z,3.60
2017-12-21T02:05:18.325Z,3.17
2017-12-21T02:07:45.590Z,6.17
2017-12-21T02:10:12.859Z,4.53
2017-12-21T02:12:40.120Z,5.50
2017-12-21T02:15:07.369Z,4.10
2017-12-21T02:17:34.640Z,3.67
2017-12-21T02:20:01.892Z,3.00
2017-12-21T02:22:29.157Z,4.00
2017-12-21T02:24:56.405Z,3.70
2017-12-21T02:27:23.675Z,4.20
2017-12-21T02:29:50.928Z,4.57
2017-12-21T02:32:18.197Z,3.77
2017-12-21T02:34:45.448Z,6.43
2017-12-21T02:37:12.718Z,3.77
2017-12-21T02:39:39.965Z,4.90
2017-12-21T02:42:07.231Z,3.97
2017-12-21T02:44:34.481Z,5.80
2017-12-21T02:47:01.753Z,4.83
2017-12-21T02:49:29.009Z,4.63
2017-12-21T02:51:56.257Z,3.93
2017-12-21T02:54:23.527Z,3.77
2017-12-21T02:56:50.764Z,3.97
2017-12-21T02:59:18.036Z,5.10
2017-12-21T03:01:45.282Z,6.30
2017-12-21T03:04:12.555Z,5.63
2017-12-21T03:06:39.808Z,6.37
2017-12-21T03:09:07.080Z,7.90
2017-12-21T03:11:34.324Z,6.97
2017-12-21T03:14:01.593Z,4.97
2017-12-21T03:16:28.876Z,4.53
2017-12-21T03:18:56.180Z,5.70
2017-12-21T03:21:23.440Z,6.27
2017-12-21T03:23:50.689Z,4.53
2017-12-21T03:26:17.950Z,5.63
2017-12-21T03:28:45.202Z,4.20
2017-12-21T03:31:12.473Z,7.07
2017-12-21T03:33:39.725Z,6.57
2017-12-21T03:36:07.002Z,5.50
2017-12-21T03:38:34.248Z,4.90
2017-12-21T03:41:01.512Z,4.17
2017-12-21T03:43:28.771Z,4.10
2017-12-21T03:45:56.040Z,5.63
2017-12-21T03:48:23.281Z,4.73
2017-12-21T03:50:50.549Z,5.00
2017-12-21T03:53:17.806Z,3.60
2017-12-21T03:55:45.065Z,3.23
2017-12-21T03:58:12.317Z,3.90
2017-12-21T04:00:39.583Z,4.63
2017-12-21T04:03:06.840Z,5.03
2017-12-21T04:05:34.089Z,4.70
2017-12-21T04:08:01.373Z,4.30
2017-12-21T04:10:28.608Z,2.93
2017-12-21T04:12:55.887Z,3.57
2017-12-21T04:15:23.133Z,4.13
2017-12-21T04:17:51.133Z,3.70
2017-12-21T04:20:18.383Z,3.43
2017-12-21T04:22:45.644Z,3.73
2017-12-21T04:25:12.892Z,6.40
2017-12-21T04:27:40.152Z,4.50
2017-12-21T04:30:07.416Z,3.30
2017-12-21T04:32:34.682Z,2.70
2017-12-21T04:35:01.924Z,2.87
2017-12-21T04:37:29.195Z,3.40
2017-12-21T04:39:56.447Z,2.90
2017-12-21T04:42:23.729Z,3.17
2017-12-21T04:44:50.981Z,2.60
2017-12-21T04:47:18.237Z,2.93
2017-12-21T04:49:45.505Z,2.87
2017-12-21T04:52:12.756Z,2.93
2017-12-21T04:54:40.028Z,2.17
2017-12-21T04:57:07.281Z,3.20
2017-12-21T04:59:34.546Z,5.20
2017-12-21T05:02:01.798Z,3.57
2017-12-21T05:04:29.069Z,3.97
2017-12-21T05:06:56.307Z,3.40
2017-12-21T05:09:23.571Z,2.87
2017-12-21T05:11:52.452Z,3.20
2017-12-21T05:14:20.069Z,3.47
2017-12-21T05:16:47.311Z,2.80
2017-12-21T05:19:14.625Z,2.90
2017-12-21T05:21:41.886Z,3.23
2017-12-21T05:24:09.143Z,6.83
2017-12-21T05:26:36.409Z,4.07
2017-12-21T05:29:03.659Z,5.53
2017-12-21T05:31:30.928Z,3.50
2017-12-21T05:33:58.179Z,4.63
2017-12-21T05:36:25.449Z,3.10
2017-12-21T05:38:52.702Z,4.00
2017-12-21T05:41:19.967Z,3.30
2017-12-21T05:43:47.406Z,4.37
2017-12-21T05:46:14.700Z,3.50
2017-12-21T05:48:41.949Z,3.37
2017-12-21T05:51:09.212Z,3.33
2017-12-21T05:53:36.460Z,3.60
2017-12-21T05:56:03.725Z,3.20
2017-12-21T05:58:30.978Z,5.40
2017-12-21T06:00:58.245Z,5.73
2017-12-21T06:03:25.496Z,5.23
2017-12-21T06:05:52.780Z,3.63
2017-12-21T06:08:20.020Z,5.20
2017-12-21T06:10:47.269Z,4.57
2017-12-21T06:13:14.557Z,7.80
2017-12-21T06:15:41.814Z,4.70
2017-12-21T06:18:09.067Z,4.00
2017-12-21T06:20:36.345Z,4.40
2017-12-21T06:23:04.475Z,6.33
2017-12-21T06:25:31.757Z,4.40
2017-12-21T06:27:59.006Z,5.03
2017-12-21T06:30:26.260Z,5.40
2017-12-21T06:32:53.554Z,4.30
2017-12-21T06:35:20.798Z,3.93
2017-12-21T06:37:48.057Z,3.60
2017-12-21T06:40:15.329Z,5.20
2017-12-21T06:42:42.578Z,4.27
2017-12-21T06:45:09.853Z,4.37
2017-12-21T06:47:37.099Z,5.37
2017-12-21T06:50:04.401Z,4.70
2017-12-21T06:52:31.654Z,4.80
2017-12-21T06:54:58.901Z,6.60
2017-12-21T06:57:26.171Z,5.53
2017-12-21T06:59:53.416Z,4.20
2017-12-21T07:02:20.696Z,5.13
2017-12-21T07:04:47.954Z,7.10
2017-12-21T07:07:15.212Z,4.43
2017-12-21T07:09:42.474Z,8.30
2017-12-21T07:12:09.721Z,5.57
2017-12-21T07:14:36.989Z,5.10
2017-12-21T07:17:04.242Z,7.37
2017-12-21T07:19:31.527Z,5.10
2017-12-21T07:21:58.771Z,5.37
2017-12-21T07:24:26.041Z,6.17
2017-12-21T07:26:53.293Z,5.77
2017-12-21T07:29:20.553Z,7.00
2017-12-21T07:31:47.836Z,11.37
2017-12-21T07:34:15.107Z,5.40
2017-12-21T07:36:42.384Z,5.83
2017-12-21T07:39:09.645Z,6.90
2017-12-21T07:41:36.905Z,6.23
2017-12-21T07:44:04.176Z,7.07
2017-12-21T07:46:31.467Z,9.87
2017-12-21T07:48:58.713Z,6.67
2017-12-21T07:51:25.970Z,11.00
2017-12-21T07:53:53.249Z,8.67
2017-12-21T07:56:20.501Z,7.47
2017-12-21T07:58:47.777Z,8.20
2017-12-21T08:01:15.033Z,9.83
2017-12-21T08:03:42.316Z,8.77
2017-12-21T08:06:09.588Z,8.33
2017-12-21T08:08:36.840Z,7.10
2017-12-21T08:11:04.121Z,6.70
2017-12-21T08:13:31.369Z,7.80
2017-12-21T08:15:58.662Z,9.30
2017-12-21T08:18:25.917Z,8.20
2017-12-21T08:20:53.175Z,7.53
2017-12-21T08:23:20.445Z,9.73
2017-12-21T08:25:47.717Z,7.00
2017-12-21T08:28:15.002Z,7.27
2017-12-21T08:30:42.277Z,8.37
2017-12-21T08:33:09.529Z,8.17
2017-12-21T08:35:36.801Z,7.67
2017-12-21T08:38:04.077Z,7.20
2017-12-21T08:40:31.324Z,7.50
2017-12-21T08:42:58.593Z,6.27
2017-12-21T08:45:25.837Z,5.90
2017-12-21T08:47:53.121Z,9.70
2017-12-21T08:50:20.372Z,6.83
2017-12-21T08:52:47.651Z,7.93
2017-12-21T08:55:14.897Z,7.13
2017-12-21T08:57:42.167Z,7.57
2017-12-21T09:00:09.430Z,10.07
2017-12-21T09:02:36.680Z,8.40
2017-12-21T09:05:03.969Z,7.90
2017-12-21T09:07:31.216Z,8.53
2017-12-21T09:09:58.465Z,8.43
2017-12-21T09:12:25.773Z,10.43
2017-12-21T09:14:53.024Z,8.23
2017-12-21T09:17:20.294Z,10.33
2017-12-21T09:19:47.570Z,8.03
2017-12-21T09:22:14.849Z,9.37
2017-12-21T09:24:42.108Z,7.77
2017-12-21T09:27:09.361Z,9.00
2017-12-21T09:29:36.649Z,10.10
2017-12-21T09:32:03.934Z,8.80
2017-12-21T09:34:31.191Z,9.03
2017-12-21T09:36:58.469Z,8.70
2017-12-21T09:39:25.736Z,8.70
2017-12-21T09:41:53.026Z,13.80
2017-12-21T09:44:20.282Z,8.53
2017-12-21T09:46:47.549Z,8.33
2017-12-21T09:49:14.833Z,7.37
2017-12-21T09:51:42.081Z,9.83
2017-12-21T09:54:09.360Z,7.70
2017-12-21T09:56:36.608Z,9.30
2017-12-21T09:59:03.892Z,10.17
2017-12-21T10:01:31.177Z,8.53
2017-12-21T10:03:58.457Z,8.17
2017-12-21T10:06:25.710Z,7.83
2017-12-21T10:08:52.986Z,10.60
2017-12-21T10:11:20.244Z,9.87
2017-12-21T10:13:47.538Z,8.27
2017-12-21T10:16:14.801Z,10.80
2017-12-21T10:18:42.101Z,10.93
2017-12-21T10:21:09.363Z,10.73
2017-12-21T10:23:36.617Z,9.83
2017-12-21T10:26:03.931Z,9.47
2017-12-21T10:28:31.181Z,11.17
2017-12-21T10:30:58.436Z,11.40
2017-12-21T10:33:25.692Z,9.17
2017-12-21T10:35:52.984Z,10.17
2017-12-21T10:38:20.237Z,9.40
2017-12-21T10:40:47.520Z,10.07
2017-12-21T10:43:14.805Z,9.40
2017-12-21T10:45:42.058Z,8.27
2017-12-21T10:48:09.344Z,7.23
2017-12-21T10:50:36.584Z,8.40
2017-12-21T10:53:03.842Z,9.60
2017-12-21T10:55:31.113Z,9.20
2017-12-21T10:57:58.375Z,9.80
2017-12-21T11:00:25.646Z,8.27
2017-12-21T11:02:52.925Z,7.10
2017-12-21T11:05:20.168Z,7.63
2017-12-21T11:07:47.416Z,7.50
2017-12-21T11:10:14.701Z,9.67
2017-12-21T11:12:41.948Z,6.77
2017-12-21T11:15:09.200Z,6.47
2017-12-21T11:17:36.477Z,6.83
2017-12-21T11:20:03.721Z,5.53
2017-12-21T11:22:31.008Z,7.00
2017-12-21T11:24:58.260Z,7.50
2017-12-21T11:27:25.514Z,6.27
2017-12-21T11:29:52.788Z,5.40
2017-12-21T11:32:20.064Z,7.33
2017-12-21T11:34:47.342Z,6.63
2017-12-21T11:37:14.624Z,5.23
2017-12-21T11:39:41.874Z,5.80
2017-12-21T11:42:09.121Z,5.40
2017-12-21T11:44:36.393Z,6.60
2017-12-21T11:47:03.649Z,4.87
2017-12-21T11:49:30.951Z,5.00
2017-12-21T11:51:58.188Z,5.20
2017-12-21T11:54:25.446Z,4.50
2017-12-21T11:56:52.723Z,3.80
2017-12-21T11:59:19.966Z,5.00
2017-12-21T12:01:47.237Z,5.80
2017-12-21T12:04:14.484Z,5.07
2017-12-21T12:06:41.752Z,4.80
2017-12-21T12:09:09.020Z,4.50
2017-12-21T12:11:36.265Z,3.57
2017-12-21T12:14:03.546Z,3.90
2017-12-21T12:16:30.805Z,3.70
2017-12-21T12:18:58.077Z,4.27
2017-12-21T12:21:25.353Z,3.17
2017-12-21T12:23:52.605Z,3.80
2017-12-21T12:26:19.873Z,4.30
2017-12-21T12:28:47.120Z,3.00
2017-12-21T12:31:14.405Z,4.33
2017-12-21T12:33:41.654Z,3.30
2017-12-21T12:36:08.905Z,3.37
2017-12-21T12:38:36.183Z,3.30
2017-12-21T12:41:03.457Z,3.60
2017-12-21T12:43:30.705Z,3.97
2017-12-21T12:45:57.990Z,3.60
2017-12-21T12:48:25.237Z,4.00
2017-12-21T12:50:52.484Z,3.57
2017-12-21T12:53:19.753Z,4.30
2017-12-21T12:55:47.001Z,4.40
2017-12-21T12:58:14.291Z,5.53
2017-12-21T13:00:41.543Z,6.90
2017-12-21T13:03:08.798Z,5.30
2017-12-21T13:05:36.081Z,5.60
2017-12-21T13:08:03.329Z,7.50
2017-12-21T13:10:30.576Z,5.40
2017-12-21T13:12:57.849Z,6.23
2017-12-21T13:15:25.096Z,6.40
2017-12-21T13:17:52.389Z,6.23
2017-12-21T13:20:19.637Z,6.50
2017-12-21T13:22:46.884Z,6.63
2017-12-21T13:25:14.167Z,6.77
2017-12-21T13:27:41.413Z,6.30
2017-12-21T13:30:08.694Z,7.67
2017-12-21T13:32:35.945Z,8.20
2017-12-21T13:35:03.197Z,6.10
2017-12-21T13:37:31.353Z,6.87
2017-12-21T13:39:58.611Z,8.17
2017-12-21T13:42:25.891Z,6.83
2017-12-21T13:44:53.184Z,6.90
2017-12-21T13:47:20.625Z,6.53
2017-12-21T13:49:47.916Z,6.73
2017-12-21T13:52:15.258Z,6.10
2017-12-21T13:54:42.505Z,6.63
2017-12-21T13:57:09.765Z,7.50
2017-12-21T13:59:37.033Z,6.80
2017-12-21T14:02:04.477Z,6.47
2017-12-21T14:04:31.720Z,6.00
2017-12-21T14:06:59.104Z,6.60
2017-12-21T14:09:26.380Z,6.67
2017-12-21T14:11:53.975Z,7.33
2017-12-21T14:14:21.249Z,7.03
2017-12-21T14:16:48.567Z,6.30
2017-12-21T14:19:16.247Z,6.77
2017-12-21T14:21:43.593Z,7.50
2017-12-21T14:24:10.848Z,6.73
2017-12-21T14:26:38.399Z,7.00
2017-12-21T14:29:05.676Z,8.53
2017-12-21T14:31:33.058Z,7.20
2017-12-21T14:34:00.315Z,6.40
2017-12-21T14:36:27.558Z,5.50
2017-12-21T14:38:54.828Z,6.13
2017-12-21T14:41:22.077Z,6.30
2017-12-21T14:43:49.349Z,4.80
2017-12-21T14:46:16.602Z,5.47
2017-12-21T14:48:43.869Z,6.60
2017-12-21T14:51:11.190Z,8.60
2017-12-21T14:53:38.437Z,5.70
2017-12-21T14:56:05.717Z,6.00
2017-12-21T14:58:32.974Z,7.40
2017-12-21T15:01:00.216Z,5.30
2017-12-21T15:03:27.503Z,5.60
2017-12-21T15:05:54.749Z,4.60
2017-12-21T15:08:22.025Z,4.90
2017-12-21T15:10:49.319Z,4.60
2017-12-21T15:13:16.566Z,4.73
2017-12-21T15:15:43.808Z,4.83
2017-12-21T15:18:11.086Z,5.80
2017-12-21T15:20:38.330Z,6.77
2017-12-21T15:23:05.616Z,5.37
2017-12-21T15:25:32.942Z,5.33
2017-12-21T15:28:00.205Z,5.40
2017-12-21T15:30:27.481Z,5.70
2017-12-21T15:32:54.736Z,4.90
2017-12-21T15:35:22.049Z,5.23
2017-12-21T15:37:49.304Z,5.57
2017-12-21T15:40:16.585Z,5.00
2017-12-21T15:42:43.907Z,5.90
2017-12-21T15:45:11.172Z,7.80
2017-12-21T15:47:38.525Z,4.93
2017-12-21T15:50:05.777Z,6.97
2017-12-21T15:52:33.053Z,5.20
2017-12-21T15:55:00.330Z,5.73
2017-12-21T15:57:27.569Z,7.23
2017-12-21T15:59:54.849Z,7.97
2017-12-21T16:02:22.109Z,8.37
2017-12-21T16:04:49.396Z,4.60
2017-12-21T16:07:16.658Z,5.60
2017-12-21T16:09:43.937Z,5.00
2017-12-21T16:12:11.185Z,6.97
2017-12-21T16:14:38.428Z,6.00
2017-12-21T16:17:05.701Z,5.73
2017-12-21T16:19:32.977Z,5.40
2017-12-21T16:22:00.264Z,5.27
2017-12-21T16:24:27.518Z,6.13
2017-12-21T16:26:54.813Z,6.30
2017-12-21T16:29:22.038Z,6.63
2017-12-21T16:31:49.283Z,8.97
2017-12-21T16:34:16.649Z,7.17
2017-12-21T16:36:43.899Z,5.80
2017-12-21T16:39:11.173Z,6.70
2017-12-21T16:41:38.504Z,6.80
2017-12-21T16:44:05.789Z,7.33
2017-12-21T16:46:33.040Z,6.77
2017-12-21T16:49:00.370Z,6.80
2017-12-21T16:51:27.621Z,6.03
2017-12-21T16:53:54.882Z,6.43
2017-12-21T16:56:22.162Z,6.40
2017-12-21T16:58:49.413Z,6.40
2017-12-21T17:01:16.698Z,8.17
2017-12-21T17:03:43.941Z,6.90
2017-12-21T17:06:11.248Z,7.17
2017-12-21T17:08:38.512Z,7.93
2017-12-21T17:11:05.769Z,9.73
2017-12-21T17:13:33.145Z,8.50
2017-12-21T17:16:00.378Z,10.50
2017-12-21T17:18:28.107Z,8.40
2017-12-21T17:20:55.351Z,9.30
2017-12-21T17:23:22.601Z,8.90
2017-12-21T17:25:49.876Z,9.23
2017-12-21T17:28:17.144Z,14.30
2017-12-21T17:30:44.425Z,9.20
2017-12-21T17:33:11.715Z,10.23
2017-12-21T17:35:38.997Z,10.67
2017-12-21T17:38:06.261Z,9.60
2017-12-21T17:40:33.544Z,9.17
2017-12-21T17:43:00.798Z,8.80
2017-12-21T17:45:28.133Z,14.20
2017-12-21T17:47:55.381Z,10.37
2017-12-21T17:50:22.762Z,13.17
2017-12-21T17:52:49.997Z,11.77
2017-12-21T17:55:17.255Z,11.60
2017-12-21T17:57:44.537Z,10.90
2017-12-21T18:00:12.464Z,8.83
2017-12-21T18:02:39.825Z,10.10
2017-12-21T18:05:07.082Z,11.93
2017-12-21T18:07:34.430Z,9.23
2017-12-21T18:10:01.681Z,8.87
2017-12-21T18:12:28.935Z,9.20
2017-12-21T18:14:56.260Z,9.07
2017-12-21T18:17:23.533Z,9.13
2017-12-21T18:19:50.854Z,12.30
2017-12-21T18:22:18.145Z,11.77
2017-12-21T18:24:45.437Z,10.67
2017-12-21T18:27:12.697Z,11.10
2017-12-21T18:29:39.961Z,11.97
2017-12-21T18:32:07.250Z,10.23
2017-12-21T18:34:34.512Z,10.97
2017-12-21T18:37:01.797Z,10.43
2017-12-21T18:39:29.064Z,11.07
2017-12-21T18:41:56.517Z,12.37
2017-12-21T18:44:23.813Z,14.10
2017-12-21T18:46:51.099Z,14.07
2017-12-21T18:49:18.376Z,15.13
2017-12-21T18:51:45.641Z,16.30
2017-12-21T18:54:18.816Z,16.33
2017-12-21T18:56:46.126Z,12.13
2017-12-21T18:59:13.377Z,15.10
2017-12-21T19:01:40.651Z,13.53
2017-12-21T19:04:08.019Z,18.30
2017-12-21T19:06:35.359Z,12.93
2017-12-21T19:09:02.624Z,14.80
2017-12-21T19:11:29.917Z,10.87
2017-12-21T19:13:57.182Z,12.57
2017-12-21T19:16:24.471Z,10.97
2017-12-21T19:18:51.735Z,11.10
2017-12-21T19:21:18.989Z,14.47
2017-12-21T19:23:46.305Z,11.20
2017-12-21T19:26:14.189Z,12.03
2017-12-21T19:28:41.575Z,16.17
2017-12-21T19:31:08.925Z,11.47
2017-12-21T19:33:36.211Z,10.20
2017-12-21T19:36:03.472Z,10.20
2017-12-21T19:38:30.769Z,11.00
2017-12-21T19:40:58.033Z,11.03
2017-12-21T19:43:25.296Z,18.07
2017-12-21T19:45:52.586Z,14.13
2017-12-21T19:48:19.840Z,10.00
2017-12-21T19:50:47.140Z,9.87
2017-12-21T19:53:14.397Z,12.83
2017-12-21T19:55:41.667Z,10.50
2017-12-21T19:58:08.949Z,11.97
2017-12-21T20:00:36.248Z,11.80
2017-12-21T20:03:03.504Z,9.80
2017-12-21T20:05:30.787Z,13.30
2017-12-21T20:07:58.064Z,10.60
2017-12-21T20:10:25.320Z,9.73
2017-12-21T20:12:52.608Z,10.77
2017-12-21T20:15:19.869Z,10.80
2017-12-21T20:17:47.165Z,10.33
2017-12-21T20:20:14.668Z,11.77
2017-12-21T20:22:41.964Z,10.30
2017-12-21T20:25:09.226Z,14.57
2017-12-21T20:27:36.508Z,12.60
2017-12-21T20:30:03.804Z,10.50
2017-12-21T20:32:31.176Z,10.37
2017-12-21T20:34:58.460Z,10.30
2017-12-21T20:37:25.787Z,9.97
2017-12-21T20:39:53.070Z,11.53
2017-12-21T20:42:20.393Z,10.53
2017-12-21T20:44:47.684Z,10.17
2017-12-21T20:47:14.949Z,10.83
2017-12-21T20:49:42.209Z,10.67
2017-12-21T20:52:09.513Z,11.73
2017-12-21T20:54:36.869Z,12.00
2017-12-21T20:57:04.153Z,13.30
2017-12-21T20:59:31.448Z,13.87
2017-12-21T21:01:58.714Z,13.60
2017-12-21T21:04:26.913Z,12.97
2017-12-21T21:06:54.203Z,17.70
2017-12-21T21:09:21.461Z,14.10
2017-12-21T21:11:48.740Z,17.60
2017-12-21T21:14:16.003Z,12.87
2017-12-21T21:16:43.289Z,15.03
2017-12-21T21:19:10.594Z,12.27
2017-12-21T21:21:37.840Z,11.40
2017-12-21T21:24:05.159Z,12.37
2017-12-21T21:26:32.504Z,17.47
2017-12-21T21:28:59.774Z,20.30
2017-12-21T21:31:27.100Z,16.13
2017-12-21T21:33:54.365Z,12.00
2017-12-21T21:36:21.644Z,10.57
2017-12-21T21:38:48.960Z,10.00
2017-12-21T21:41:16.245Z,11.47
2017-12-21T21:43:43.497Z,13.63
2017-12-21T21:46:10.789Z,13.87
2017-12-21T21:48:38.059Z,14.50
2017-12-21T21:51:05.351Z,12.73
2017-12-21T21:53:32.610Z,13.20
2017-12-21T21:55:59.943Z,13.40
2017-12-21T21:58:27.251Z,12.43
2017-12-21T22:00:54.548Z,16.77
2017-12-21T22:03:21.819Z,16.80
2017-12-21T22:05:49.158Z,12.00
2017-12-21T22:08:16.419Z,13.13
2017-12-21T22:10:43.709Z,12.03
2017-12-21T22:13:10.973Z,12.20
2017-12-21T22:15:38.272Z,11.10
2017-12-21T22:18:05.536Z,11.20
2017-12-21T22:20:32.805Z,12.77
2017-12-21T22:23:00.095Z,15.00
2017-12-21T22:25:27.359Z,15.20
2017-12-21T22:27:54.649Z,15.73
2017-12-21T22:30:21.999Z,16.30
2017-12-21T22:32:49.256Z,17.00
2017-12-21T22:35:16.549Z,22.43
2017-12-21T22:37:43.837Z,16.67
2017-12-21T22:40:11.213Z,15.87
2017-12-21T22:42:38.831Z,16.00
2017-12-21T22:45:06.094Z,16.57
2017-12-21T22:47:33.352Z,16.90
2017-12-21T22:50:00.653Z,23.90
2017-12-21T22:52:27.987Z,23.87
2017-12-21T22:54:55.248Z,20.87
2017-12-21T22:57:22.537Z,18.30
2017-12-21T22:59:49.801Z,22.40
2017-12-21T23:02:17.119Z,16.90
2017-12-21T23:04:44.465Z,18.23
2017-12-21T23:07:11.725Z,16.27
2017-12-21T23:09:39.014Z,21.10
2017-12-21T23:12:06.268Z,17.70
2017-12-21T23:14:33.585Z,17.13
2017-12-21T23:17:00.849Z,19.20
2017-12-21T23:19:28.133Z,20.00
2017-12-21T23:21:55.393Z,18.00
2017-12-21T23:24:22.696Z,17.80
2017-12-21T23:26:49.960Z,17.70
2017-12-21T23:29:17.234Z,16.97
2017-12-21T23:31:44.501Z,19.30
2017-12-21T23:34:11.813Z,16.73
2017-12-21T23:36:39.077Z,20.17
2017-12-21T23:39:06.344Z,18.90
2017-12-21T23:41:33.624Z,15.37
2017-12-21T23:44:00.996Z,22.20
2017-12-21T23:46:28.281Z,17.00
2017-12-21T23:48:55.631Z,16.67
2017-12-21T23:51:22.915Z,19.77
2017-12-21T23:53:50.593Z,16.80
2017-12-21T23:56:17.913Z,14.00
2017-12-21T23:58:45.178Z,15.83
